Time;durP1;ratioP1;P1;durP2;ratioP2;P2;SDS_P1;SDS_P2;PMS_P1;PMS_P2;Temp;Humidity;BMP_temperature;BMP_pressure;BME280_temperature;BME280_humidity;BME280_pressure;Samples;Min_cycle;Max_cycle;Signal;HPM_P1;HPM_P2
2023/01/18 00:04:15;;;;;;;91.50;38.30;;;;;;;-1.51;100.00;98192.09;216108;1298;139409;-86
2023/01/18 00:10:14;;;;;;;;;;;;;;;;;;;;;
2023/01/18 00:15:57;;;;;;;;;;;;;;;;;;;;;
2023/01/18 00:21:49;;;;;;;;;;;;;;;;;;;;;
2023/01/18 00:27:49;;;;;;;;;;;;;;;;;;;;;
2023/01/18 00:33:55;;;;;;;79.10;34.30;;;;;;;-1.55;100.00;98184.15;216265;1299;139253;-86
2023/01/18 00:39:56;;;;;;;74.20;30.00;;;;;;;-1.56;100.00;98193.90;216428;1298;140066;-86
2023/01/18 00:45:57;;;;;;;72.10;32.40;;;;;;;-1.57;100.00;98207.05;216900;1298;96613;-86
2023/01/18 00:52:01;;;;;;;71.70;30.70;;;;;;;-1.57;100.00;98213.52;216434;1299;139342;-87
2023/01/18 00:58:02;;;;;;;73.50;33.00;;;;;;;-1.57;100.00;98214.44;217014;1297;96094;-86
2023/01/18 01:09:53;;;;;;;;;;;;;;;;;;;;;
2023/01/18 01:27:42;;;;;;;55.10;22.70;;;;;;;-1.44;100.00;98211.05;217057;1299;112205;-87
2023/01/18 01:33:32;;;;;;;44.50;21.30;;;;;;;-1.39;100.00;98208.61;216501;1298;139036;-87
2023/01/18 01:39:24;;;;;;;;;;;;;;;;;;;;;
2023/01/18 01:45:18;;;;;;;;;;;;;;;;;;;;;
2023/01/18 01:51:19;;;;;;;;;;;;;;;;;;;;;
2023/01/18 02:03:23;;;;;;;37.70;17.60;;;;;;;-0.64;100.00;98190.66;216575;1299;138686;-88
2023/01/18 02:09:17;;;;;;;37.40;16.40;;;;;;;-0.54;100.00;98191.00;217078;1299;105075;-89
2023/01/18 02:15:11;;;;;;;34.70;16.60;;;;;;;-0.43;100.00;98188.80;216873;1297;139712;-87
2023/01/18 02:21:35;;;;;;;;;;;;;;;;;;;;;
2023/01/18 02:27:25;;;;;;;34.50;14.30;;;;;;;-0.17;100.00;98183.89;217184;1298;106358;-87
2023/01/18 02:33:30;;;;;;;30.20;15.00;;;;;;;-0.04;100.00;98173.42;216659;1299;139108;-88
2023/01/18 02:39:37;;;;;;;27.70;12.80;;;;;;;0.01;100.00;98166.95;217093;1298;104772;-88
2023/01/18 02:51:42;;;;;;;36.30;14.70;;;;;;;0.04;100.00;98163.06;216690;1298;139267;-89
2023/01/18 02:57:42;;;;;;;33.30;14.90;;;;;;;0.02;100.00;98153.84;217136;1299;96243;-89
2023/01/18 03:03:43;;;;;;;35.60;15.40;;;;;;;-0.03;100.00;98153.06;216635;1298;139010;-89
2023/01/18 03:09:36;;;;;;;;;;;;;;;;;;;;;
2023/01/18 03:15:37;;;;;;;34.00;15.90;;;;;;;-0.17;100.00;98157.61;217162;1299;110889;-90
2023/01/18 03:21:37;;;;;;;31.00;14.60;;;;;;;-0.18;100.00;98158.61;216612;1297;139511;-88
2023/01/18 03:39:22;;;;;;;;;;;;;;;;;;;;;
2023/01/18 03:45:36;;;;;;;31.00;12.40;;;;;;;0.11;100.00;98179.24;216890;1299;138074;-89
2023/01/18 03:51:50;;;;;;;28.80;11.80;;;;;;;0.17;100.00;98180.88;216590;1297;139238;-89
2023/01/18 03:58:02;;;;;;;30.10;13.10;;;;;;;0.17;100.00;98179.02;217002;1299;111309;-88
2023/01/18 04:09:56;;;;;;;26.00;11.10;;;;;;;0.23;100.00;98176.19;216659;1299;138636;-89
2023/01/18 04:15:55;;;;;;;26.50;12.60;;;;;;;0.31;100.00;98177.84;217152;1299;111632;-91
2023/01/18 04:21:55;;;;;;;29.70;12.10;;;;;;;0.35;100.00;98182.33;216728;1299;138435;-88
2023/01/18 04:27:56;;;;;;;28.50;13.90;;;;;;;0.36;100.00;98186.89;217159;1299;111070;-88
2023/01/18 04:39:53;;;;;;;28.20;12.60;;;;;;;0.49;100.00;98188.46;216603;1298;138874;-89
2023/01/18 04:45:19;;;;;;;;;;;;;;;;;;;;;
2023/01/18 04:50:51;;;;;;;;;;;;;;;0.51;100.00;98182.31;216599;1298;138845;-89
2023/01/18 04:56:24;;;;;;;28.80;11.40;;;;;;;0.50;100.00;98183.77;217016;1297;112239;-89
2023/01/18 05:01:57;;;;;;;25.50;11.60;;;;;;;0.57;100.00;98191.21;216614;1297;139124;-89
2023/01/18 05:07:47;;;;;;;;;;;;;;;;;;;;;
2023/01/18 05:13:21;;;;;;;;;;;;;;;;;;;;;
2023/01/18 05:19:11;;;;;;;26.40;12.80;;;;;;;0.72;100.00;98168.30;217316;1298;111321;-90
2023/01/18 05:24:46;;;;;;;34.60;15.30;;;;;;;0.78;100.00;98160.27;216913;1298;140558;-88
2023/01/18 05:30:36;;;;;;;36.60;17.20;;;;;;;0.78;100.00;98155.56;216677;1298;138849;-90
2023/01/18 05:36:06;;;;;;;32.80;17.80;;;;;;;0.71;100.00;98153.99;217264;1299;111053;-88
2023/01/18 05:41:32;;;;;;;42.80;19.00;;;;;;;0.64;100.00;98166.11;216793;1300;139582;-91
2023/01/18 06:10:50;;;;;;;33.70;15.10;;;;;;;0.74;100.00;98216.52;216661;1298;138742;-90
2023/01/18 06:16:51;;;;;;;36.60;16.40;;;;;;;0.75;100.00;98219.63;213425;1298;5359421;-92
2023/01/18 06:46:59;;;;;;;29.20;14.70;;;;;;;0.91;100.00;98204.00;216737;1298;96689;-84
2023/01/18 06:53:00;;;;;;;28.00;14.10;;;;;;;0.94;100.00;98214.26;216084;1299;138531;-85
2023/01/18 06:59:01;;;;;;;31.30;14.70;;;;;;;0.98;100.00;98212.20;216714;1299;96076;-85
2023/01/18 07:05:02;;;;;;;36.00;15.30;;;;;;;1.00;100.00;98208.05;216476;1299;222506;-83
2023/01/18 07:11:03;;;;;;;32.40;15.70;;;;;;;1.03;100.00;98217.90;216076;1299;139022;-84
2023/01/18 07:17:04;;;;;;;32.10;15.70;;;;;;;1.04;100.00;98220.33;216791;1299;96327;-86
2023/01/18 07:23:05;;;;;;;29.80;14.60;;;;;;;1.07;100.00;98226.33;216195;1299;138739;-84
2023/01/18 07:29:07;;;;;;;27.80;14.70;;;;;;;1.09;100.00;98228.21;216708;1299;96399;-86
2023/01/18 07:35:06;;;;;;;;;;;;;;;;;;;;;
2023/01/18 07:41:10;;;;;;;42.80;19.80;;;;;;;1.15;100.00;98235.16;216134;1299;138505;-86
2023/01/18 07:47:10;;;;;;;34.50;17.20;;;;;;;1.18;100.00;98229.11;216821;1299;96120;-85
2023/01/18 07:53:11;;;;;;;32.90;16.00;;;;;;;1.22;100.00;98228.83;216307;1299;138728;-83
2023/01/18 07:59:04;;;;;;;;;;;;;;;;;;;;;
2023/01/18 08:05:09;;;;;;;33.50;16.00;;;;;;;1.29;100.00;98222.41;216647;1298;96140;-83
2023/01/18 08:11:09;;;;;;;;;;;;;;;;;;;;;
2023/01/18 08:17:01;;;;;;;27.10;12.90;;;;;;;1.37;100.00;98220.43;216827;1299;111298;-84
2023/01/18 08:23:01;;;;;;;;;;;;;;;;;;;;;
2023/01/18 08:29:05;;;;;;;27.10;12.60;;;;;;;1.42;100.00;98222.50;216822;1299;105351;-85
2023/01/18 08:34:44;;;;;;;27.70;13.60;;;;;;;1.46;100.00;98223.92;216383;1299;138513;-85
2023/01/18 08:41:06;;;;;;;30.90;15.70;;;;;;;1.50;100.00;98229.48;216174;1299;139347;-87
2023/01/18 08:47:05;;;;;;;;;;;;;;;;;;;;;
2023/01/18 08:52:58;;;;;;;;;;;;;;;;;;;;;
2023/01/18 08:59:08;;;;;;;;;;;;;;;;;;;;;
2023/01/18 09:04:58;;;;;;;;;;;;;;;;;;;;;
2023/01/18 09:11:01;;;;;;;36.60;19.60;;;;;;;1.72;100.00;98248.31;216234;1299;138828;-87
2023/01/18 09:17:01;;;;;;;36.30;18.30;;;;;;;1.74;100.00;98249.42;216674;1302;107517;-88
2023/01/18 09:23:02;;;;;;;32.20;18.30;;;;;;;1.80;100.00;98253.13;216303;1299;139012;-89
2023/01/18 09:29:03;;;;;;;36.90;19.00;;;;;;;1.84;100.00;98252.62;216626;1299;107613;-89
2023/01/18 09:35:02;;;;;;;;;;;;;;;;;;;;;
2023/01/18 09:40:54;;;;;;;35.30;18.70;;;;;;;1.93;100.00;98262.25;216359;1299;139558;-90
2023/01/18 09:52:59;;;;;;;38.10;19.20;;;;;;;2.01;100.00;98260.15;216139;1299;140114;-89
2023/01/18 09:59:10;;;;;;;31.30;16.20;;;;;;;2.04;100.00;98252.27;216872;1299;108031;-90
2023/01/18 10:05:23;;;;;;;;;;;;;;;;;;;;;
2023/01/18 10:11:19;;;;;;;28.80;15.60;;;;;;;2.04;100.00;98238.73;216388;1299;138927;-87
2023/01/18 10:17:12;;;;;;;;;;;;;;;;;;;;;
2023/01/18 10:29:44;;;;;;;31.70;16.40;;;;;;;2.18;100.00;98247.68;216299;1299;107428;-89
2023/01/18 10:36:23;;;;;;;33.20;18.70;;;;;;;2.22;100.00;98255.55;216840;1299;246629;-88
2023/01/18 10:42:05;;;;;;;28.90;15.10;;;;;;;2.26;100.00;98262.48;215988;1299;138873;-90
2023/01/18 10:48:07;;;;;;;32.60;18.20;;;;;;;2.29;100.00;98265.63;216941;1299;96476;-90
2023/01/18 10:54:21;;;;;;;;;;;;;;;;;;;;;
2023/01/18 11:00:31;;;;;;;32.70;17.90;;;;;;;2.32;100.00;98261.46;216438;1298;138922;-88
2023/01/18 11:06:31;;;;;;;32.40;19.30;;;;;;;2.35;100.00;98263.27;216836;1299;96120;-89
2023/01/18 11:18:39;;;;;;;40.80;23.50;;;;;;;2.36;100.00;98263.36;217037;1299;95892;-89
2023/01/18 11:24:36;;;;;;;;;;;;;;;;;;;;;
2023/01/18 11:30:36;;;;;;;;;;;;;;;;;;;;;
2023/01/18 11:36:27;;;;;;;42.20;21.70;;;;;;;2.33;100.00;98270.16;216933;1299;97004;-91
2023/01/18 11:42:20;;;;;;;;;;;;;;;;;;;;;
2023/01/18 11:54:53;;;;;;;44.30;21.30;;;;;;;2.29;100.00;98274.98;216793;1299;138481;-92
2023/01/18 12:00:45;;;;;;;40.90;21.50;;;;;;;2.30;100.00;98277.58;216465;1299;139857;-90
2023/01/18 12:06:53;;;;;;;40.10;21.10;;;;;;;2.30;100.00;98275.39;216798;1299;96500;-89
2023/01/18 12:12:56;;;;;;;;;;;;;;;;;;;;;
2023/01/18 12:19:01;;;;;;;;;;;;;;;;;;;;;
2023/01/18 12:25:17;;;;;;;37.90;21.10;;;;;;;2.35;100.00;98278.63;216654;1298;138137;-88
2023/01/18 12:31:02;;;;;;;44.10;23.40;;;;;;;2.35;100.00;98281.71;216325;1298;138942;-90
2023/01/18 12:37:13;;;;;;;45.10;22.90;;;;;;;2.34;100.00;98276.44;216903;1298;96250;-90
2023/01/18 12:43:19;;;;;;;46.00;24.30;;;;;;;2.41;100.00;98282.54;216328;1299;138715;-89
2023/01/18 13:48:56;;;;;;;49.20;26.40;;;;;;;2.79;100.00;98367.67;217030;1299;97253;-89
2023/01/18 13:54:57;;;;;;;48.00;25.40;;;;;;;2.88;100.00;98379.00;216675;1299;138688;-89
2023/01/18 14:01:02;;;;;;;52.30;27.70;;;;;;;2.96;100.00;98384.04;216577;1298;139441;-88
2023/01/18 14:07:11;;;;;;;49.70;25.90;;;;;;;3.02;100.00;98389.13;217082;1297;95975;-88
2023/01/18 14:13:11;;;;;;;51.20;28.10;;;;;;;3.04;100.00;98396.44;216344;1299;138729;-87
2023/01/18 14:25:55;;;;;;;57.80;33.00;;;;;;;3.04;100.00;98418.02;216405;1297;137862;-90
2023/01/18 14:31:59;;;;;;;82.00;39.70;;;;;;;3.02;100.00;98416.23;216485;1297;138818;-90
2023/01/18 14:38:01;;;;;;;;;;;;;;;;;;;;;
2023/01/18 14:44:06;;;;;;;50.20;27.60;;;;;;;3.00;100.00;98437.16;216592;1299;138669;-89
2023/01/18 14:55:46;;;;;;;;;;;;;;;;;;;;;
2023/01/18 15:01:41;;;;;;;;;;;;;;;;;;;;;
2023/01/18 15:08:14;;;;;;;41.70;23.30;;;;;;;2.89;100.00;98456.63;216958;1298;96954;-88
2023/01/18 15:13:46;;;;;;;;;;;;;;;;;;;;;
2023/01/18 15:19:54;;;;;;;46.60;26.40;;;;;;;2.75;100.00;98485.58;216430;1297;139077;-88
2023/01/18 15:25:54;;;;;;;;;;;;;;;;;;;;;
2023/01/18 15:31:39;;;;;;;69.70;35.90;;;;;;;2.64;100.00;98505.24;216541;1298;138814;-89
2023/01/18 15:37:16;;;;;;;;;;;;;;;;;;;;;
2023/01/18 15:43:24;;;;;;;47.20;26.00;;;;;;;2.55;100.00;98528.58;216568;1298;138583;-90
2023/01/18 15:49:49;;;;;;;50.40;25.30;;;;;;;2.51;100.00;98539.37;217155;1297;96243;-88
2023/01/18 15:55:26;;;;;;;53.50;26.90;;;;;;;2.45;100.00;98553.41;216896;1299;95781;-89
2023/01/18 16:01:33;;;;;;;;;;;;;;;;;;;;;
2023/01/18 16:07:40;;;;;;;56.80;28.90;;;;;;;2.37;100.00;98575.19;217199;1297;96047;-89
2023/01/18 16:19:39;;;;;;;50.40;27.30;;;;;;;2.29;100.00;98579.56;217112;1298;96340;-89
2023/01/18 16:25:49;;;;;;;50.60;25.70;;;;;;;2.24;100.00;98578.09;216994;1299;97027;-90
2023/01/18 16:31:50;;;;;;;43.50;23.90;;;;;;;2.18;100.00;98585.22;216564;1297;139102;-89
2023/01/18 16:37:51;;;;;;;56.50;33.70;;;;;;;2.09;100.00;98593.31;216951;1298;97381;-90
2023/01/18 16:44:01;;;;;;;68.70;47.90;;;;;;;2.01;100.00;98610.40;216482;1298;138348;-89
2023/01/18 16:50:03;;;;;;;81.00;54.90;;;;;;;1.95;100.00;98618.52;216541;1299;139186;-89
2023/01/18 16:56:05;;;;;;;67.90;43.00;;;;;;;1.88;100.00;98630.18;217059;1297;95883;-88
2023/01/18 17:02:07;;;;;;;51.70;29.30;;;;;;;1.80;100.00;98630.73;216466;1297;138858;-88
2023/01/18 17:08:08;;;;;;;53.60;32.10;;;;;;;1.74;100.00;98637.92;217091;1299;96001;-89
2023/01/18 17:14:10;;;;;;;93.70;49.30;;;;;;;1.73;100.00;98641.39;216417;1300;138296;-89
2023/01/18 17:20:14;;;;;;;100.20;53.00;;;;;;;1.67;100.00;98645.64;216405;1297;139414;-89
2023/01/18 17:26:15;;;;;;;98.60;52.70;;;;;;;1.62;100.00;98655.60;217035;1299;96070;-90
2023/01/18 17:32:14;;;;;;;;;;;;;;;;;;;;;
2023/01/18 17:38:20;;;;;;;101.60;52.10;;;;;;;1.53;100.00;98675.75;217084;1297;97033;-89
2023/01/18 17:44:21;;;;;;;89.40;46.30;;;;;;;1.50;100.00;98690.70;216457;1300;138469;-90
2023/01/18 17:50:23;;;;;;;85.80;43.10;;;;;;;1.46;100.00;98697.29;216271;1299;139834;-90
2023/01/18 17:56:23;;;;;;;78.70;40.30;;;;;;;1.45;100.00;98701.84;216756;1299;97661;-90
2023/01/18 18:02:16;;;;;;;;;;;;;;;;;;;;;
2023/01/18 18:08:26;;;;;;;65.70;33.80;;;;;;;1.46;100.00;98714.17;216958;1299;96305;-88
2023/01/18 18:14:28;;;;;;;60.10;33.30;;;;;;;1.47;100.00;98715.52;212522;1300;5358924;-91
2023/01/18 18:20:29;;;;;;;68.50;35.90;;;;;;;1.49;100.00;98736.29;216318;1297;138981;-89
2023/01/18 18:26:49;;;;;;;68.30;37.00;;;;;;;1.49;100.00;98746.97;217070;1297;97013;-89
2023/01/18 18:32:24;;;;;;;;;;;;;;;;;;;;;
2023/01/18 18:38:33;;;;;;;58.70;33.90;;;;;;;1.50;100.00;98759.87;216930;1297;96299;-89
2023/01/18 18:50:36;;;;;;;69.10;36.70;;;;;;;1.47;100.00;98782.63;216561;1297;138310;-88
2023/01/18 18:56:40;;;;;;;75.60;40.40;;;;;;;1.49;100.00;98794.15;217146;1297;95894;-89
2023/01/18 19:02:41;;;;;;;76.70;40.20;;;;;;;1.51;100.00;98807.44;216416;1297;139531;-89
2023/01/18 19:08:41;;;;;;;67.90;39.60;;;;;;;1.52;100.00;98815.83;217054;1297;96464;-89
2023/01/18 19:14:43;;;;;;;72.40;39.90;;;;;;;1.52;100.00;98827.73;216500;1297;138759;-90
2023/01/18 19:20:44;;;;;;;79.80;41.00;;;;;;;1.54;100.00;98830.41;216573;1297;140514;-90
2023/01/18 19:32:47;;;;;;;94.20;45.70;;;;;;;1.52;100.00;98847.11;216578;1297;138565;-89
2023/01/18 19:44:50;;;;;;;106.10;52.20;;;;;;;1.49;100.00;98867.16;216674;1297;139664;-89
2023/01/18 19:50:51;;;;;;;93.40;46.90;;;;;;;1.51;100.00;98875.34;216413;1298;139106;-89
2023/01/18 19:56:52;;;;;;;88.10;45.90;;;;;;;1.49;100.00;98882.73;216939;1297;96043;-90
2023/01/18 20:02:53;;;;;;;92.10;47.80;;;;;;;1.49;100.00;98883.52;216571;1297;138774;-89
2023/01/18 20:08:55;;;;;;;87.60;45.00;;;;;;;1.51;100.00;98890.14;217166;1297;111329;-90
2023/01/18 20:14:55;;;;;;;87.10;43.90;;;;;;;1.52;100.00;98897.44;216782;1297;138217;-90
2023/01/18 20:20:57;;;;;;;84.00;45.10;;;;;;;1.52;100.00;98901.09;216637;1297;139473;-90
2023/01/18 20:27:01;;;;;;;90.10;46.90;;;;;;;1.53;100.00;98901.95;217029;1297;111377;-89
2023/01/18 20:32:59;;;;;;;79.90;43.90;;;;;;;1.54;100.00;98911.52;216589;1297;139253;-89
2023/01/18 20:38:59;;;;;;;;;;;;;;;;;;;;;
2023/01/18 20:44:50;;;;;;;;;;;;;;;;;;;;;
2023/01/18 20:51:11;;;;;;;92.80;45.40;;;;;;;1.51;100.00;98966.44;217444;1295;112843;-90
2023/01/18 21:13:41;;;;;;;;;;;;;;;;;;;;;
2023/01/18 21:19:46;;;;;;;75.40;37.00;;;;;;;1.51;100.00;99005.61;216697;1299;139087;-89
2023/01/18 21:25:43;;;;;;;;;;;;;;;;;;;;;
2023/01/18 21:37:44;;;;;;;;;;;;;;;;;;;;;
2023/01/18 21:55:22;;;;;;;74.50;36.00;;;;;;;1.46;100.00;99030.82;217220;1299;111211;-89
2023/01/18 22:01:32;;;;;;;;;;;;;;;;;;;;;
2023/01/18 22:07:03;;;;;;;;;;;;;;;;;;;;;
2023/01/18 23:01:02;;;;;;;;;;;;;;;;;;;;;
2023/01/18 23:13:09;;;;;;;51.90;25.50;;;;;;;1.45;100.00;99086.10;216683;1297;138353;-89
2023/01/18 23:18:20;;;;;;;51.40;24.60;;;;;;;1.44;100.00;99093.11;217256;1296;110029;-88
2023/01/18 23:24:20;;;;;;;;;;;;;;;;;;;;;
2023/01/18 23:30:11;;;;;;;43.10;21.30;;;;;;;1.39;100.00;99118.08;216710;1296;138920;-89
2023/01/18 23:36:08;;;;;;;47.80;23.80;;;;;;;1.38;100.00;99124.02;217512;1296;111261;-89
